createdAt,value
2022-12-22T00:00:15.779Z,10.07
2022-12-22T00:03:03.063Z,6.67
2022-12-22T00:05:49.999Z,10.53
2022-12-22T00:08:37.296Z,8.20
2022-12-22T00:11:28.545Z,17.83
2022-12-22T00:14:15.179Z,23.83
2022-12-22T00:17:03.061Z,8.80
2022-12-22T00:19:50.300Z,10.53
2022-12-22T00:22:44.750Z,10.97
2022-12-22T00:25:36.732Z,6.27
2022-12-22T00:28:29.648Z,11.80
2022-12-22T00:31:16.530Z,6.67
2022-12-22T00:34:03.174Z,10.77
2022-12-22T00:36:50.094Z,15.17
2022-12-22T00:39:37.310Z,9.27
2022-12-22T00:42:24.653Z,18.77
2022-12-22T00:45:11.444Z,7.17
2022-12-22T00:47:58.172Z,12.53
2022-12-22T00:50:49.003Z,6.77
2022-12-22T00:53:36.718Z,7.97
2022-12-22T00:56:24.187Z,7.27
2022-12-22T00:59:11.814Z,7.03
2022-12-22T01:02:00.296Z,4.77
2022-12-22T01:04:47.550Z,11.93
2022-12-22T01:07:35.381Z,9.83
2022-12-22T01:10:23.054Z,17.03
2022-12-22T01:13:09.761Z,10.70
2022-12-22T01:15:56.938Z,6.70
2022-12-22T01:18:43.683Z,7.47
2022-12-22T01:21:31.910Z,8.07
2022-12-22T01:24:19.832Z,7.87
2022-12-22T01:27:07.129Z,9.47
2022-12-22T01:29:54.037Z,14.40
2022-12-22T01:32:40.673Z,16.10
2022-12-22T01:35:36.040Z,6.50
2022-12-22T01:38:22.613Z,7.83
2022-12-22T01:41:09.984Z,8.40
2022-12-22T01:43:57.196Z,11.73
2022-12-22T01:46:48.784Z,4.07
2022-12-22T01:49:45.878Z,18.87
2022-12-22T01:52:34.842Z,12.43
2022-12-22T01:55:25.693Z,7.77
2022-12-22T01:58:14.797Z,5.27
2022-12-22T02:01:01.925Z,7.37
2022-12-22T02:03:48.867Z,5.13
2022-12-22T02:06:41.594Z,3.97
2022-12-22T02:10:01.369Z,10.07
2022-12-22T02:13:06.941Z,7.20
2022-12-22T02:16:45.642Z,3.33
2022-12-22T02:20:12.424Z,8.57
2022-12-22T02:23:04.358Z,4.70
2022-12-22T02:25:58.593Z,4.37
2022-12-22T02:28:45.332Z,6.47
2022-12-22T02:31:33.864Z,6.63
2022-12-22T02:34:20.837Z,4.07
2022-12-22T02:37:22.197Z,7.87
2022-12-22T02:40:23.924Z,3.10
2022-12-22T02:43:17.190Z,5.23
2022-12-22T02:46:22.822Z,6.30
2022-12-22T02:49:12.554Z,4.97
2022-12-22T02:52:05.413Z,4.33
2022-12-22T02:54:52.681Z,4.17
2022-12-22T02:57:40.011Z,5.87
2022-12-22T03:00:29.805Z,10.07
2022-12-22T03:03:16.572Z,7.20
2022-12-22T03:06:03.738Z,7.30
2022-12-22T03:08:50.562Z,6.20
2022-12-22T03:11:38.167Z,7.07
2022-12-22T03:14:24.945Z,9.40
2022-12-22T03:17:11.736Z,6.87
2022-12-22T03:19:58.367Z,8.13
2022-12-22T03:22:45.216Z,7.23
2022-12-22T03:25:32.898Z,12.90
2022-12-22T03:28:05.481Z,10.47
2022-12-22T03:30:33.911Z,5.07
2022-12-22T03:33:02.315Z,8.60
2022-12-22T03:35:30.687Z,7.63
2022-12-22T03:38:03.865Z,7.57
2022-12-22T03:40:32.385Z,5.17
2022-12-22T03:43:19.266Z,6.37
2022-12-22T03:46:06.276Z,5.10
2022-12-22T03:48:34.665Z,11.27
2022-12-22T03:51:03.067Z,5.80
2022-12-22T03:53:31.434Z,8.40
2022-12-22T03:56:05.690Z,6.87
2022-12-22T03:58:36.042Z,9.33
2022-12-22T04:01:07.927Z,8.20
2022-12-22T04:03:36.445Z,10.03
2022-12-22T04:06:06.076Z,15.03
2022-12-22T04:08:35.104Z,9.83
2022-12-22T04:11:21.812Z,12.70
2022-12-22T04:13:50.395Z,7.77
2022-12-22T04:16:18.914Z,13.20
2022-12-22T04:18:47.267Z,8.23
2022-12-22T04:21:16.727Z,14.63
2022-12-22T04:23:45.124Z,6.67
2022-12-22T04:26:13.966Z,7.37
2022-12-22T04:28:42.299Z,16.97
2022-12-22T04:31:10.748Z,9.43
2022-12-22T04:33:39.185Z,12.77
2022-12-22T04:36:08.076Z,12.57
2022-12-22T04:38:36.642Z,9.30
2022-12-22T04:41:05.534Z,8.80
2022-12-22T04:43:34.083Z,18.63
2022-12-22T04:46:02.551Z,11.93
2022-12-22T04:48:31.988Z,17.50
2022-12-22T04:51:00.734Z,14.10
2022-12-22T04:53:29.696Z,11.80
2022-12-22T04:56:04.980Z,9.47
2022-12-22T04:58:33.569Z,12.27
2022-12-22T05:01:10.040Z,9.00
2022-12-22T05:03:38.572Z,19.03
2022-12-22T05:06:08.314Z,11.70
2022-12-22T05:08:37.348Z,10.07
2022-12-22T05:11:06.638Z,7.13
2022-12-22T05:13:35.145Z,15.67
2022-12-22T05:16:08.277Z,9.73
2022-12-22T05:18:37.196Z,9.33
2022-12-22T05:21:13.468Z,15.60
2022-12-22T05:23:41.971Z,19.60
2022-12-22T05:26:10.460Z,9.70
2022-12-22T05:28:39.695Z,11.47
2022-12-22T05:31:09.955Z,9.80
2022-12-22T05:33:38.579Z,12.27
2022-12-22T05:36:07.385Z,10.97
2022-12-22T05:38:35.877Z,17.80
2022-12-22T05:41:04.951Z,6.43
2022-12-22T05:43:34.362Z,9.43
2022-12-22T05:46:10.347Z,13.63
2022-12-22T05:48:40.001Z,10.00
2022-12-22T05:51:09.128Z,9.70
2022-12-22T05:53:37.701Z,9.17
2022-12-22T05:56:07.096Z,9.60
2022-12-22T05:58:37.472Z,11.37
2022-12-22T06:01:06.122Z,12.73
2022-12-22T06:03:34.623Z,7.33
2022-12-22T06:06:03.243Z,8.87
2022-12-22T06:08:31.634Z,11.43
2022-12-22T06:11:00.120Z,5.90
2022-12-22T06:13:29.345Z,14.33
2022-12-22T06:15:57.943Z,11.07
2022-12-22T06:18:26.440Z,7.47
2022-12-22T06:20:56.026Z,11.07
2022-12-22T06:23:24.527Z,29.03
2022-12-22T06:26:00.280Z,10.83
2022-12-22T06:28:29.508Z,12.40
2022-12-22T06:30:57.937Z,7.77
2022-12-22T06:33:27.161Z,14.37
2022-12-22T06:35:59.088Z,17.43
2022-12-22T06:38:28.693Z,13.03
2022-12-22T06:40:59.470Z,18.83
2022-12-22T06:43:27.980Z,18.37
2022-12-22T06:45:56.617Z,11.90
2022-12-22T06:48:25.154Z,18.50
2022-12-22T06:50:59.303Z,18.53
2022-12-22T06:53:28.341Z,10.10
2022-12-22T06:55:56.788Z,16.13
2022-12-22T06:58:25.343Z,10.03
2022-12-22T07:00:56.922Z,21.43
2022-12-22T07:03:25.771Z,15.40
2022-12-22T07:05:54.325Z,16.00
2022-12-22T07:08:22.775Z,16.53
2022-12-22T07:11:01.606Z,20.87
2022-12-22T07:13:34.851Z,21.27
2022-12-22T07:16:04.150Z,17.33
2022-12-22T07:18:36.096Z,24.07
2022-12-22T07:21:07.080Z,24.77
2022-12-22T07:23:35.739Z,20.27
2022-12-22T07:26:05.047Z,27.53
2022-12-22T07:28:37.039Z,33.97
2022-12-22T07:31:05.956Z,32.83
2022-12-22T07:33:34.509Z,29.93
2022-12-22T07:36:10.728Z,29.60
2022-12-22T07:38:40.730Z,25.33
2022-12-22T07:41:28.491Z,38.20
2022-12-22T07:43:58.214Z,29.30
2022-12-22T07:46:30.512Z,31.63
2022-12-22T07:49:18.471Z,34.53
2022-12-22T07:51:47.027Z,38.37
2022-12-22T07:54:16.888Z,51.97
2022-12-22T07:56:46.470Z,49.20
2022-12-22T07:59:15.321Z,39.23
2022-12-22T08:01:45.784Z,36.30
2022-12-22T08:04:15.245Z,43.10
2022-12-22T08:06:44.369Z,40.47
2022-12-22T08:09:17.761Z,34.60
2022-12-22T08:11:49.292Z,34.57
2022-12-22T08:14:17.780Z,35.03
2022-12-22T08:16:46.211Z,33.83
2022-12-22T08:19:15.007Z,33.03
2022-12-22T08:21:50.307Z,39.27
2022-12-22T08:24:21.646Z,29.13
2022-12-22T08:26:51.801Z,31.20
2022-12-22T08:29:24.797Z,31.47
2022-12-22T08:31:53.237Z,37.70
2022-12-22T08:34:21.811Z,28.57
2022-12-22T08:36:52.556Z,38.27
2022-12-22T08:39:20.994Z,37.27
2022-12-22T08:41:52.841Z,43.10
2022-12-22T08:44:26.544Z,41.17
2022-12-22T08:46:56.091Z,37.23
2022-12-22T08:49:25.516Z,62.27
2022-12-22T08:51:55.001Z,49.57
2022-12-22T08:54:24.833Z,56.17
2022-12-22T08:56:53.535Z,72.00
2022-12-22T08:59:23.788Z,70.07
2022-12-22T09:01:53.605Z,82.40
2022-12-22T09:04:22.945Z,49.92
2022-12-22T09:06:55.556Z,44.28
2022-12-22T09:09:24.906Z,49.75
2022-12-22T09:11:53.462Z,94.78
2022-12-22T09:14:23.109Z,84.10
2022-12-22T09:16:52.209Z,54.05
2022-12-22T09:19:20.649Z,50.25
2022-12-22T09:21:49.693Z,106.25
2022-12-22T09:24:18.820Z,60.60
2022-12-22T09:26:47.214Z,80.93
2022-12-22T09:29:16.092Z,39.78
2022-12-22T09:31:44.612Z,43.20
2022-12-22T09:34:17.740Z,36.10
2022-12-22T09:36:47.962Z,31.30
2022-12-22T09:39:16.520Z,34.55
2022-12-22T09:41:55.823Z,35.38
2022-12-22T09:44:31.682Z,47.07
2022-12-22T09:47:02.898Z,53.20
2022-12-22T09:49:32.043Z,64.73
2022-12-22T09:52:01.478Z,56.77
2022-12-22T09:54:30.383Z,52.27
2022-12-22T09:56:59.378Z,50.83
2022-12-22T09:59:28.348Z,45.13
2022-12-22T10:02:27.716Z,36.83
2022-12-22T10:05:07.375Z,40.00
2022-12-22T10:07:39.958Z,46.20
2022-12-22T10:10:27.975Z,36.97
2022-12-22T10:12:58.476Z,35.13
2022-12-22T10:15:27.119Z,35.37
2022-12-22T10:18:09.704Z,37.00
2022-12-22T10:20:40.012Z,31.07
2022-12-22T10:23:19.454Z,31.97
2022-12-22T10:28:47.825Z,32.77
2022-12-22T10:31:22.559Z,29.57
2022-12-22T10:33:53.147Z,37.70
2022-12-22T10:36:25.472Z,47.03
2022-12-22T10:38:57.113Z,42.13
2022-12-22T10:41:27.776Z,32.90
2022-12-22T10:44:02.308Z,32.43
2022-12-22T10:46:37.803Z,39.10
2022-12-22T10:49:27.476Z,27.70
2022-12-22T10:52:29.522Z,37.20
2022-12-22T10:55:17.904Z,30.33
2022-12-22T10:57:46.928Z,30.37
2022-12-22T11:00:27.279Z,25.57
2022-12-22T11:03:01.381Z,32.50
2022-12-22T11:05:30.283Z,22.53
2022-12-22T11:08:06.171Z,30.43
2022-12-22T11:10:39.155Z,24.67
2022-12-22T11:13:24.904Z,17.63
2022-12-22T11:16:07.694Z,23.47
2022-12-22T11:18:59.526Z,21.90
2022-12-22T11:21:35.630Z,26.17
2022-12-22T11:24:22.080Z,25.93
2022-12-22T11:27:34.668Z,26.10
2022-12-22T11:30:09.173Z,24.70
2022-12-22T11:32:43.107Z,24.40
2022-12-22T11:35:41.171Z,28.07
2022-12-22T11:38:26.819Z,36.27
2022-12-22T11:41:01.458Z,28.80
2022-12-22T11:44:07.212Z,32.70
2022-12-22T11:46:38.261Z,29.17
2022-12-22T11:49:38.852Z,24.47
2022-12-22T11:52:22.337Z,31.43
2022-12-22T11:55:03.877Z,46.70
2022-12-22T11:58:02.473Z,34.60
2022-12-22T12:01:11.746Z,33.40
2022-12-22T12:03:59.154Z,30.77
2022-12-22T12:06:43.299Z,29.63
2022-12-22T12:09:28.129Z,50.57
2022-12-22T12:12:05.904Z,35.47
2022-12-22T12:15:00.999Z,34.37
2022-12-22T12:17:38.300Z,31.47
2022-12-22T12:20:15.756Z,32.03
2022-12-22T12:22:44.178Z,44.30
2022-12-22T12:25:26.705Z,43.83
2022-12-22T12:28:16.683Z,67.80
2022-12-22T12:31:06.535Z,51.30
2022-12-22T12:33:50.135Z,48.73
2022-12-22T12:36:25.039Z,51.33
2022-12-22T12:39:23.177Z,52.30
2022-12-22T12:42:06.209Z,49.93
2022-12-22T12:44:36.703Z,30.40
2022-12-22T12:47:30.505Z,40.30
2022-12-22T12:50:10.426Z,35.07
2022-12-22T12:52:39.551Z,27.93
2022-12-22T12:55:32.594Z,33.63
2022-12-22T12:58:03.625Z,31.00
2022-12-22T13:00:35.841Z,33.07
2022-12-22T13:04:02.363Z,36.70
2022-12-22T13:06:50.502Z,36.87
2022-12-22T13:09:49.997Z,37.07
2022-12-22T13:12:38.264Z,47.07
2022-12-22T13:15:36.156Z,38.90
2022-12-22T13:18:29.757Z,39.70
2022-12-22T13:21:42.100Z,37.70
2022-12-22T13:26:52.037Z,40.10
2022-12-22T13:29:25.594Z,43.10
2022-12-22T13:32:05.223Z,43.60
2022-12-22T13:35:42.987Z,38.80
2022-12-22T13:37:58.165Z,41.03
2022-12-22T13:40:28.894Z,34.00
2022-12-22T13:43:28.612Z,37.03
2022-12-22T13:45:58.833Z,36.90
2022-12-22T13:48:41.614Z,37.23
2022-12-22T13:51:22.145Z,33.77
2022-12-22T13:54:12.788Z,35.50
2022-12-22T13:56:51.327Z,36.57
2022-12-22T13:59:32.282Z,44.77
2022-12-22T14:02:15.549Z,41.13
2022-12-22T14:04:51.913Z,63.27
2022-12-22T14:07:22.388Z,47.83
2022-12-22T14:09:52.422Z,40.47
2022-12-22T14:12:25.578Z,52.80
2022-12-22T14:14:55.328Z,44.43
2022-12-22T14:17:27.647Z,47.33
2022-12-22T14:19:59.416Z,42.00
2022-12-22T14:22:39.171Z,38.37
2022-12-22T14:25:34.828Z,50.23
2022-12-22T14:28:03.208Z,38.20
2022-12-22T14:30:42.190Z,103.47
2022-12-22T14:33:28.684Z,42.57
2022-12-22T14:36:40.721Z,64.00
2022-12-22T14:39:10.167Z,72.90
2022-12-22T14:42:11.712Z,37.80
2022-12-22T14:44:44.744Z,30.90
2022-12-22T14:47:20.574Z,26.13
2022-12-22T14:49:51.289Z,24.57
2022-12-22T14:52:26.389Z,20.07
2022-12-22T14:54:54.822Z,12.30
2022-12-22T14:57:36.364Z,14.17
2022-12-22T15:00:24.477Z,15.43
2022-12-22T15:02:55.511Z,13.17
2022-12-22T15:05:36.536Z,12.37
2022-12-22T15:08:31.878Z,11.13
2022-12-22T15:11:03.244Z,13.03
2022-12-22T15:13:32.260Z,8.47
2022-12-22T15:16:00.708Z,10.63
2022-12-22T15:18:29.918Z,10.17
2022-12-22T15:20:58.349Z,12.73
2022-12-22T15:23:26.897Z,10.53
2022-12-22T15:25:55.387Z,8.03
2022-12-22T15:28:24.854Z,13.10
2022-12-22T15:30:53.416Z,12.87
2022-12-22T15:33:23.064Z,9.80
2022-12-22T15:35:51.543Z,13.43
2022-12-22T15:38:21.838Z,13.20
2022-12-22T15:40:51.364Z,16.43
2022-12-22T15:43:55.868Z,16.50
2022-12-22T15:46:08.388Z,19.83
2022-12-22T15:48:37.105Z,17.63
2022-12-22T15:51:07.688Z,23.47
2022-12-22T15:53:36.165Z,16.27
2022-12-22T15:56:04.848Z,20.80
2022-12-22T15:58:35.563Z,14.27
2022-12-22T16:01:04.290Z,11.93
2022-12-22T16:03:32.923Z,12.40
2022-12-22T16:06:01.383Z,12.60
2022-12-22T16:08:32.766Z,9.17
2022-12-22T16:11:01.420Z,12.00
2022-12-22T16:13:29.904Z,16.40
2022-12-22T16:15:58.614Z,9.23
2022-12-22T16:18:27.702Z,9.50
2022-12-22T16:20:56.172Z,15.40
2022-12-22T16:23:25.240Z,12.60
2022-12-22T16:26:00.943Z,13.33
2022-12-22T16:28:30.407Z,16.00
2022-12-22T16:31:00.017Z,7.90
2022-12-22T16:33:28.733Z,8.13
2022-12-22T16:35:57.220Z,11.33
2022-12-22T16:38:25.730Z,7.83
2022-12-22T16:40:54.518Z,13.23
2022-12-22T16:46:14.671Z,10.37
2022-12-22T16:48:50.725Z,15.30
2022-12-22T16:51:29.999Z,12.90
2022-12-22T16:53:59.958Z,16.47
2022-12-22T16:56:31.351Z,24.97
2022-12-22T16:59:01.791Z,11.07
2022-12-22T17:01:49.537Z,22.37
2022-12-22T17:04:19.681Z,20.87
2022-12-22T17:06:49.494Z,13.87
2022-12-22T17:09:23.695Z,23.93
2022-12-22T17:11:52.180Z,14.00
2022-12-22T17:14:35.487Z,11.47
2022-12-22T17:17:04.253Z,9.03
2022-12-22T17:19:33.424Z,16.50
2022-12-22T17:22:01.867Z,11.10
2022-12-22T17:24:30.766Z,11.33
2022-12-22T17:27:01.382Z,7.30
2022-12-22T17:29:31.359Z,9.17
2022-12-22T17:32:01.318Z,8.27
2022-12-22T17:34:29.806Z,9.77
2022-12-22T17:37:00.304Z,11.80
2022-12-22T17:39:28.832Z,10.27
2022-12-22T17:41:57.712Z,8.10
2022-12-22T17:44:28.104Z,12.47
2022-12-22T17:46:56.809Z,6.40
2022-12-22T17:49:25.671Z,8.13
2022-12-22T17:51:54.207Z,7.03
2022-12-22T17:54:26.366Z,5.33
2022-12-22T17:56:58.679Z,6.43
2022-12-22T17:59:27.524Z,6.63
2022-12-22T18:01:57.939Z,5.87
2022-12-22T18:04:26.379Z,7.27
2022-12-22T18:06:56.330Z,7.50
2022-12-22T18:09:26.354Z,8.27
2022-12-22T18:11:56.545Z,11.37
2022-12-22T18:14:25.055Z,7.83
2022-12-22T18:16:54.469Z,8.87
2022-12-22T18:19:22.951Z,7.13
2022-12-22T18:21:51.508Z,7.30
2022-12-22T18:24:19.909Z,8.87
2022-12-22T18:26:49.732Z,8.07
2022-12-22T18:29:18.326Z,8.33
2022-12-22T18:31:46.880Z,5.73
2022-12-22T18:34:17.614Z,7.30
2022-12-22T18:36:47.959Z,8.67
2022-12-22T18:39:19.919Z,7.03
2022-12-22T18:41:48.498Z,6.60
2022-12-22T18:44:19.340Z,6.13
2022-12-22T18:46:49.598Z,6.90
2022-12-22T18:49:18.113Z,7.87
2022-12-22T18:51:47.891Z,7.50
2022-12-22T18:54:38.747Z,12.67
2022-12-22T18:57:13.921Z,17.57
2022-12-22T18:59:43.166Z,15.80
2022-12-22T19:02:23.262Z,10.67
2022-12-22T19:04:51.983Z,7.23
2022-12-22T19:07:22.226Z,8.07
2022-12-22T19:09:51.062Z,7.20
2022-12-22T19:12:23.441Z,8.00
2022-12-22T19:14:53.179Z,15.20
2022-12-22T19:17:24.783Z,6.77
2022-12-22T19:19:53.344Z,6.77
2022-12-22T19:22:23.293Z,8.57
2022-12-22T19:24:51.958Z,5.90
2022-12-22T19:27:22.966Z,6.90
2022-12-22T19:29:58.858Z,10.33
2022-12-22T19:32:36.133Z,13.00
2022-12-22T19:35:13.664Z,12.00
2022-12-22T19:37:42.501Z,19.40
2022-12-22T19:40:13.327Z,7.83
2022-12-22T19:42:44.144Z,7.17
2022-12-22T19:45:39.610Z,5.77
2022-12-22T19:48:18.696Z,5.70
2022-12-22T19:50:47.671Z,5.00
2022-12-22T19:53:16.807Z,11.83
2022-12-22T19:55:53.401Z,5.10
2022-12-22T19:58:24.639Z,3.30
2022-12-22T20:00:53.578Z,5.07
2022-12-22T20:03:24.602Z,4.90
2022-12-22T20:05:53.595Z,10.07
2022-12-22T20:08:22.336Z,13.77
2022-12-22T20:10:58.459Z,9.53
2022-12-22T20:13:30.786Z,5.83
2022-12-22T20:15:59.359Z,4.40
2022-12-22T20:18:29.504Z,6.33
2022-12-22T20:21:11.368Z,7.00
2022-12-22T20:23:40.202Z,7.20
2022-12-22T20:26:13.516Z,10.67
2022-12-22T20:28:41.985Z,12.77
2022-12-22T20:31:14.019Z,7.40
2022-12-22T20:33:42.650Z,12.40
2022-12-22T20:36:24.123Z,11.47
2022-12-22T20:38:53.611Z,4.30
2022-12-22T20:41:22.754Z,5.77
2022-12-22T20:43:51.219Z,4.60
2022-12-22T20:46:29.377Z,8.00
2022-12-22T20:49:04.827Z,9.90
2022-12-22T20:51:33.915Z,6.37
2022-12-22T20:54:02.502Z,8.63
2022-12-22T20:56:35.422Z,20.70
2022-12-22T20:59:18.494Z,10.03
2022-12-22T21:01:47.431Z,7.03
2022-12-22T21:04:17.377Z,3.70
2022-12-22T21:06:56.337Z,9.00
2022-12-22T21:09:26.207Z,3.07
2022-12-22T21:11:54.597Z,6.13
2022-12-22T21:14:23.024Z,10.23
2022-12-22T21:16:52.028Z,10.37
2022-12-22T21:19:20.620Z,9.17
2022-12-22T21:21:49.007Z,11.13
2022-12-22T21:24:18.914Z,6.07
2022-12-22T21:26:49.280Z,8.07
2022-12-22T21:29:21.031Z,5.27
2022-12-22T21:31:49.778Z,5.07
2022-12-22T21:34:18.852Z,6.23
2022-12-22T21:36:49.762Z,5.67
2022-12-22T21:39:26.853Z,7.97
2022-12-22T21:42:01.550Z,6.00
2022-12-22T21:44:30.927Z,10.07
2022-12-22T21:46:59.735Z,4.87
2022-12-22T21:49:29.911Z,5.97
2022-12-22T21:51:59.573Z,3.93
2022-12-22T21:54:28.598Z,5.83
2022-12-22T21:56:56.958Z,5.47
2022-12-22T21:59:25.508Z,6.93
2022-12-22T22:01:54.172Z,5.70
2022-12-22T22:04:22.915Z,7.80
2022-12-22T22:06:51.975Z,6.90
2022-12-22T22:09:20.472Z,10.43
2022-12-22T22:12:07.372Z,8.00
2022-12-22T22:14:35.778Z,8.63
2022-12-22T22:17:04.869Z,6.83
2022-12-22T22:19:33.283Z,11.23
2022-12-22T22:22:01.657Z,12.63
2022-12-22T22:24:33.101Z,9.70
2022-12-22T22:27:01.457Z,9.40
2022-12-22T22:29:29.820Z,8.50
2022-12-22T22:31:58.233Z,10.03
2022-12-22T22:34:26.599Z,8.63
2022-12-22T22:36:55.015Z,14.90
2022-12-22T22:39:23.933Z,13.77
2022-12-22T22:41:52.740Z,13.77
2022-12-22T22:44:21.248Z,15.07
2022-12-22T22:46:49.742Z,14.20
2022-12-22T22:49:20.327Z,13.37
2022-12-22T22:51:53.343Z,10.30
2022-12-22T22:54:21.702Z,7.20
2022-12-22T22:56:50.226Z,11.40
2022-12-22T22:59:18.529Z,14.90
2022-12-22T23:01:46.946Z,9.20
2022-12-22T23:04:15.416Z,9.03
2022-12-22T23:06:44.611Z,12.93
2022-12-22T23:09:13.647Z,8.27
2022-12-22T23:11:43.284Z,15.20
2022-12-22T23:14:12.291Z,18.87
2022-12-22T23:16:40.727Z,13.30
2022-12-22T23:19:09.153Z,13.80
2022-12-22T23:21:37.590Z,11.87
2022-12-22T23:24:06.451Z,14.67
2022-12-22T23:26:34.840Z,10.93
2022-12-22T23:29:04.192Z,9.70
2022-12-22T23:31:33.411Z,6.60
2022-12-22T23:34:02.639Z,8.37
2022-12-22T23:36:31.117Z,5.17
2022-12-22T23:38:59.537Z,6.87
2022-12-22T23:41:28.204Z,6.53
2022-12-22T23:43:56.661Z,7.00
2022-12-22T23:46:25.144Z,8.03
2022-12-22T23:48:56.668Z,7.00
2022-12-22T23:51:27.544Z,8.40
2022-12-22T23:53:56.699Z,6.50
2022-12-22T23:56:25.638Z,8.10
2022-12-22T23:58:55.095Z,10.43
